createdAt,value
2017-11-25T00:00:48.388Z,0
2017-11-25T00:01:50.267Z,0
2017-11-25T00:02:52.151Z,0
2017-11-25T00:03:53.969Z,0
2017-11-25T00:04:55.789Z,0
2017-11-25T00:05:57.673Z,0
2017-11-25T00:06:59.555Z,0
2017-11-25T00:08:01.442Z,0
2017-11-25T00:09:15.595Z,0
2017-11-25T00:10:17.474Z,0
2017-11-25T00:11:19.357Z,0
2017-11-25T00:12:21.236Z,0
2017-11-25T00:13:23.058Z,0
2017-11-25T00:14:24.876Z,0
2017-11-25T00:15:26.760Z,0
2017-11-25T00:16:28.647Z,0
2017-11-25T00:17:30.529Z,0
2017-11-25T00:18:44.686Z,0
2017-11-25T00:19:46.557Z,0
2017-11-25T00:20:48.438Z,0
2017-11-25T00:21:50.317Z,0
2017-11-25T00:22:52.133Z,0
2017-11-25T00:23:53.950Z,0
2017-11-25T00:24:55.834Z,0
2017-11-25T00:25:57.715Z,0
2017-11-25T00:26:59.599Z,0
2017-11-25T00:28:13.750Z,0
2017-11-25T00:29:15.630Z,0
2017-11-25T00:30:17.511Z,0
2017-11-25T00:31:19.394Z,0
2017-11-25T00:32:21.215Z,0
2017-11-25T00:33:23.030Z,0
2017-11-25T00:34:24.914Z,0
2017-11-25T00:35:26.794Z,0
2017-11-25T00:36:28.676Z,0
2017-11-25T00:37:42.833Z,0
2017-11-25T00:38:44.708Z,0
2017-11-25T00:39:46.589Z,0
2017-11-25T00:40:48.471Z,0
2017-11-25T00:41:50.289Z,0
2017-11-25T00:42:52.109Z,0
2017-11-25T00:43:54.000Z,0
2017-11-25T00:44:55.879Z,0
2017-11-25T00:45:57.767Z,0
2017-11-25T00:47:11.964Z,0
2017-11-25T00:48:13.843Z,0
2017-11-25T00:49:15.721Z,0
2017-11-25T00:50:17.610Z,0
2017-11-25T00:51:19.419Z,0
2017-11-25T00:52:21.239Z,0
2017-11-25T00:53:23.122Z,0
2017-11-25T00:54:25.005Z,0
2017-11-25T00:55:26.888Z,0
2017-11-25T00:56:41.044Z,0
2017-11-25T00:57:42.920Z,0
2017-11-25T00:58:44.805Z,0
2017-11-25T00:59:46.683Z,0
2017-11-25T01:00:48.500Z,0
2017-11-25T01:01:50.318Z,0
2017-11-25T01:02:52.204Z,0
2017-11-25T01:03:54.080Z,0
2017-11-25T01:04:55.963Z,0
2017-11-25T01:06:10.118Z,0
2017-11-25T01:07:11.996Z,0
2017-11-25T01:08:13.876Z,0
2017-11-25T01:09:15.761Z,0
2017-11-25T01:10:17.579Z,0
2017-11-25T01:11:19.394Z,0
2017-11-25T01:12:21.277Z,0
2017-11-25T01:13:23.161Z,0
2017-11-25T01:14:25.041Z,0
2017-11-25T01:15:39.203Z,0
2017-11-25T01:16:41.071Z,0
2017-11-25T01:17:42.951Z,0
2017-11-25T01:18:44.832Z,0
2017-11-25T01:19:46.650Z,0
2017-11-25T01:20:48.467Z,0
2017-11-25T01:21:50.349Z,0
2017-11-25T01:22:52.236Z,0
2017-11-25T01:23:54.120Z,0
2017-11-25T01:25:08.272Z,0
2017-11-25T01:26:10.151Z,0
2017-11-25T01:27:12.036Z,0
2017-11-25T01:28:13.915Z,0
2017-11-25T01:29:15.734Z,0
2017-11-25T01:30:17.550Z,0
2017-11-25T01:31:19.434Z,0
2017-11-25T01:32:21.317Z,0
2017-11-25T01:33:23.200Z,0
2017-11-25T01:34:37.350Z,0
2017-11-25T01:35:39.228Z,0
2017-11-25T01:36:41.109Z,0
2017-11-25T01:37:42.991Z,0
2017-11-25T01:38:44.812Z,0
2017-11-25T01:39:46.628Z,0
2017-11-25T01:40:48.511Z,0
2017-11-25T01:41:50.392Z,0
2017-11-25T01:42:52.282Z,0
2017-11-25T01:44:06.427Z,0
2017-11-25T01:45:08.305Z,0
2017-11-25T01:46:10.189Z,0
2017-11-25T01:47:12.070Z,0
2017-11-25T01:48:13.889Z,0
2017-11-25T01:49:15.707Z,0
2017-11-25T01:50:17.588Z,0
2017-11-25T01:51:19.476Z,0
2017-11-25T01:52:21.355Z,0
2017-11-25T01:53:35.512Z,0
2017-11-25T01:54:37.385Z,0
2017-11-25T01:55:39.268Z,0
2017-11-25T01:56:41.156Z,0
2017-11-25T01:57:42.968Z,0
2017-11-25T01:58:44.788Z,0
2017-11-25T01:59:46.672Z,0
2017-11-25T02:00:48.546Z,0
2017-11-25T02:01:50.429Z,0
2017-11-25T02:03:04.577Z,0
2017-11-25T02:04:06.456Z,0
2017-11-25T02:05:08.337Z,0
2017-11-25T02:06:10.217Z,0
2017-11-25T02:07:12.032Z,0
2017-11-25T02:08:13.845Z,0
2017-11-25T02:09:15.725Z,0
2017-11-25T02:10:17.604Z,0
2017-11-25T02:11:19.485Z,0
2017-11-25T02:12:33.635Z,0
2017-11-25T02:13:35.512Z,0
2017-11-25T02:14:37.390Z,0
2017-11-25T02:15:39.269Z,0
2017-11-25T02:16:41.089Z,0
2017-11-25T02:17:42.903Z,0
2017-11-25T02:18:44.784Z,0
2017-11-25T02:19:46.661Z,0
2017-11-25T02:20:48.542Z,0
2017-11-25T02:22:02.743Z,0
2017-11-25T02:23:04.626Z,0
2017-11-25T02:24:06.509Z,0
2017-11-25T02:25:08.390Z,0
2017-11-25T02:26:10.209Z,0
2017-11-25T02:27:12.028Z,0
2017-11-25T02:28:13.910Z,0
2017-11-25T02:29:15.802Z,0
2017-11-25T02:30:17.675Z,0
2017-11-25T02:31:31.878Z,0
2017-11-25T02:32:33.761Z,0
2017-11-25T02:33:35.641Z,0
2017-11-25T02:34:37.523Z,0
2017-11-25T02:35:39.341Z,0
2017-11-25T02:36:41.156Z,0
2017-11-25T02:37:43.039Z,0
2017-11-25T02:38:44.923Z,0
2017-11-25T02:39:46.805Z,0
2017-11-25T02:41:00.952Z,0
2017-11-25T02:42:02.837Z,0
2017-11-25T02:43:04.722Z,0
2017-11-25T02:44:06.638Z,0
2017-11-25T02:45:08.462Z,0
2017-11-25T02:46:10.277Z,0
2017-11-25T02:47:12.161Z,0
2017-11-25T02:48:14.044Z,0
2017-11-25T02:49:15.945Z,0
2017-11-25T02:50:30.077Z,0
2017-11-25T02:51:31.956Z,0
2017-11-25T02:52:33.839Z,0
2017-11-25T02:53:35.727Z,0
2017-11-25T02:54:37.555Z,0
2017-11-25T02:55:39.357Z,0
2017-11-25T02:56:41.243Z,0
2017-11-25T02:57:43.127Z,0
2017-11-25T02:58:45.007Z,0
2017-11-25T02:59:59.160Z,0
2017-11-25T03:01:01.042Z,0
2017-11-25T03:02:02.927Z,0
2017-11-25T03:03:04.810Z,0
2017-11-25T03:04:06.626Z,0
2017-11-25T03:05:08.448Z,0
2017-11-25T03:06:10.327Z,0
2017-11-25T03:07:12.212Z,0
2017-11-25T03:08:14.093Z,0
2017-11-25T03:09:28.244Z,0
2017-11-25T03:10:30.134Z,0
2017-11-25T03:11:32.014Z,0
2017-11-25T03:12:33.896Z,0
2017-11-25T03:13:35.716Z,0
2017-11-25T03:14:37.535Z,0
2017-11-25T03:15:39.418Z,0
2017-11-25T03:16:41.302Z,0
2017-11-25T03:17:43.184Z,0
2017-11-25T03:18:57.341Z,0
2017-11-25T03:19:59.217Z,0
2017-11-25T03:21:01.105Z,0
2017-11-25T03:22:02.987Z,0
2017-11-25T03:23:04.807Z,0
2017-11-25T03:24:06.624Z,0
2017-11-25T03:25:08.505Z,0
2017-11-25T03:26:10.389Z,0
2017-11-25T03:27:12.276Z,0
2017-11-25T03:28:26.425Z,0
2017-11-25T03:29:28.308Z,0
2017-11-25T03:30:30.194Z,0
2017-11-25T03:31:32.074Z,0
2017-11-25T03:32:33.894Z,0
2017-11-25T03:33:35.713Z,0
2017-11-25T03:34:37.597Z,0
2017-11-25T03:35:39.481Z,0
2017-11-25T03:36:41.361Z,0
2017-11-25T03:37:55.512Z,0
2017-11-25T03:38:57.393Z,0
2017-11-25T03:39:59.278Z,0
2017-11-25T03:41:01.163Z,0
2017-11-25T03:42:02.984Z,0
2017-11-25T03:43:04.801Z,0
2017-11-25T03:44:06.680Z,0
2017-11-25T03:45:08.565Z,0
2017-11-25T03:46:10.445Z,0
2017-11-25T03:47:24.598Z,0
2017-11-25T03:48:26.479Z,0
2017-11-25T03:49:28.364Z,0
2017-11-25T03:50:30.247Z,0
2017-11-25T03:51:32.066Z,0
2017-11-25T03:52:33.884Z,0
2017-11-25T03:53:35.765Z,0
2017-11-25T03:54:37.650Z,0
2017-11-25T03:55:39.536Z,0
2017-11-25T03:56:53.689Z,0
2017-11-25T03:57:55.572Z,0
2017-11-25T03:58:57.457Z,0
2017-11-25T03:59:59.337Z,0
2017-11-25T04:01:01.160Z,0
2017-11-25T04:02:02.977Z,0
2017-11-25T04:03:04.863Z,0
2017-11-25T04:04:06.762Z,0
2017-11-25T04:05:08.629Z,0
2017-11-25T04:06:22.782Z,0
2017-11-25T04:07:24.663Z,0
2017-11-25T04:08:26.555Z,0
2017-11-25T04:09:28.438Z,0
2017-11-25T04:10:30.256Z,0
2017-11-25T04:11:32.079Z,0
2017-11-25T04:12:33.983Z,0
2017-11-25T04:13:35.849Z,0
2017-11-25T04:14:37.730Z,0
2017-11-25T04:15:51.935Z,0
2017-11-25T04:16:53.819Z,0
2017-11-25T04:17:55.700Z,0
2017-11-25T04:18:57.585Z,0
2017-11-25T04:19:59.405Z,0
2017-11-25T04:21:01.225Z,0
2017-11-25T04:22:03.108Z,0
2017-11-25T04:23:04.993Z,0
2017-11-25T04:24:06.872Z,0
2017-11-25T04:25:21.075Z,0
2017-11-25T04:26:22.957Z,0
2017-11-25T04:27:24.840Z,0
2017-11-25T04:28:26.731Z,0
2017-11-25T04:29:28.540Z,0
2017-11-25T04:30:30.359Z,0
2017-11-25T04:31:32.242Z,0
2017-11-25T04:32:34.126Z,0
2017-11-25T04:33:36.008Z,0
2017-11-25T04:34:50.159Z,0
2017-11-25T04:35:52.039Z,0
2017-11-25T04:36:53.926Z,0
2017-11-25T04:37:55.806Z,0
2017-11-25T04:38:57.628Z,0
2017-11-25T04:39:59.445Z,0
2017-11-25T04:41:01.328Z,0
2017-11-25T04:42:03.302Z,0
2017-11-25T04:43:05.146Z,0
2017-11-25T04:44:19.299Z,0
2017-11-25T04:45:21.179Z,0
2017-11-25T04:46:23.063Z,0
2017-11-25T04:47:24.944Z,0
2017-11-25T04:48:26.765Z,0
2017-11-25T04:49:28.578Z,0
2017-11-25T04:50:30.460Z,0
2017-11-25T04:51:32.342Z,0
2017-11-25T04:52:34.222Z,0
2017-11-25T04:53:48.379Z,0
2017-11-25T04:54:50.255Z,0
2017-11-25T04:55:52.139Z,0
2017-11-25T04:56:54.019Z,0
2017-11-25T04:57:55.838Z,0
2017-11-25T04:58:57.654Z,0
2017-11-25T04:59:59.540Z,0
2017-11-25T05:01:01.423Z,0
2017-11-25T05:02:03.308Z,0
2017-11-25T05:03:17.453Z,0
2017-11-25T05:04:19.336Z,0
2017-11-25T05:05:21.220Z,0
2017-11-25T05:06:23.108Z,0
2017-11-25T05:07:24.920Z,0
2017-11-25T05:08:26.739Z,0
2017-11-25T05:09:28.581Z,0
2017-11-25T05:10:30.461Z,0
2017-11-25T05:11:32.340Z,0
2017-11-25T05:12:46.490Z,0
2017-11-25T05:13:48.378Z,0
2017-11-25T05:14:50.251Z,0
2017-11-25T05:15:52.132Z,0
2017-11-25T05:16:53.953Z,0
2017-11-25T05:17:55.769Z,0
2017-11-25T05:18:57.653Z,0
2017-11-25T05:19:59.536Z,0
2017-11-25T05:21:01.415Z,0
2017-11-25T05:22:15.567Z,0
2017-11-25T05:23:17.447Z,0
2017-11-25T05:24:19.328Z,0
2017-11-25T05:25:21.210Z,0
2017-11-25T05:26:23.028Z,0
2017-11-25T05:27:24.851Z,0
2017-11-25T05:28:26.732Z,0
2017-11-25T05:29:28.613Z,0
2017-11-25T05:30:30.492Z,0
2017-11-25T05:31:44.643Z,0
2017-11-25T05:32:46.551Z,0
2017-11-25T05:33:48.435Z,0
2017-11-25T05:34:50.313Z,0
2017-11-25T05:35:52.133Z,0
2017-11-25T05:36:53.948Z,0
2017-11-25T05:37:55.831Z,0
2017-11-25T05:38:57.714Z,0
2017-11-25T05:39:59.592Z,0
2017-11-25T05:41:13.791Z,0
2017-11-25T05:42:15.674Z,0
2017-11-25T05:43:17.561Z,0
2017-11-25T05:44:19.435Z,0
2017-11-25T05:45:21.252Z,0
2017-11-25T05:46:23.073Z,0
2017-11-25T05:47:24.952Z,0
2017-11-25T05:48:26.833Z,0
2017-11-25T05:49:28.712Z,0
2017-11-25T05:50:42.866Z,0
2017-11-25T05:51:44.745Z,0
2017-11-25T05:52:46.627Z,0
2017-11-25T05:53:48.506Z,0
2017-11-25T05:54:50.325Z,0
2017-11-25T05:55:52.143Z,0
2017-11-25T05:56:54.026Z,0
2017-11-25T05:57:55.909Z,0
2017-11-25T05:58:57.792Z,0
2017-11-25T06:00:11.991Z,0
2017-11-25T06:01:13.869Z,0
2017-11-25T06:02:15.751Z,0
2017-11-25T06:03:17.630Z,0
2017-11-25T06:04:19.448Z,4
2017-11-25T06:05:21.265Z,4
2017-11-25T06:06:23.150Z,4
2017-11-25T06:07:25.034Z,4
2017-11-25T06:08:26.915Z,4
2017-11-25T06:09:41.066Z,8
2017-11-25T06:10:42.946Z,8
2017-11-25T06:11:44.832Z,8
2017-11-25T06:12:46.712Z,8
2017-11-25T06:13:48.533Z,12
2017-11-25T06:14:50.359Z,16
2017-11-25T06:15:52.238Z,20
2017-11-25T06:16:54.121Z,24
2017-11-25T06:17:56.002Z,28
2017-11-25T06:19:10.155Z,32
2017-11-25T06:20:12.034Z,36
2017-11-25T06:21:13.925Z,44
2017-11-25T06:22:15.800Z,48
2017-11-25T06:23:17.618Z,52
2017-11-25T06:24:19.435Z,56
2017-11-25T06:25:21.319Z,64
2017-11-25T06:26:23.202Z,72
2017-11-25T06:27:25.090Z,80
2017-11-25T06:28:39.235Z,88
2017-11-25T06:29:41.116Z,100
2017-11-25T06:30:43.003Z,108
2017-11-25T06:31:44.884Z,120
2017-11-25T06:32:46.706Z,124
2017-11-25T06:33:48.523Z,136
2017-11-25T06:34:50.406Z,148
2017-11-25T06:35:52.289Z,164
2017-11-25T06:36:54.171Z,180
2017-11-25T06:38:08.320Z,196
2017-11-25T06:39:10.205Z,208
2017-11-25T06:40:12.090Z,224
2017-11-25T06:41:13.983Z,236
2017-11-25T06:42:15.801Z,244
2017-11-25T06:43:17.624Z,264
2017-11-25T06:44:19.505Z,276
2017-11-25T06:45:21.391Z,300
2017-11-25T06:46:23.273Z,312
2017-11-25T06:47:37.430Z,336
2017-11-25T06:48:39.315Z,356
2017-11-25T06:49:41.206Z,372
2017-11-25T06:50:43.082Z,392
2017-11-25T06:51:44.906Z,420
2017-11-25T06:52:46.726Z,456
2017-11-25T06:53:48.613Z,484
2017-11-25T06:54:50.498Z,508
2017-11-25T06:55:52.381Z,548
2017-11-25T06:57:06.539Z,596
2017-11-25T06:58:08.421Z,656
2017-11-25T06:59:10.306Z,684
2017-11-25T07:00:12.191Z,708
2017-11-25T07:01:14.014Z,752
2017-11-25T07:02:15.834Z,768
2017-11-25T07:03:17.733Z,824
2017-11-25T07:04:19.611Z,908
2017-11-25T07:05:21.499Z,1000
2017-11-25T07:06:35.657Z,1144
2017-11-25T07:07:37.536Z,1240
2017-11-25T07:08:39.423Z,1292
2017-11-25T07:09:41.307Z,1352
2017-11-25T07:10:43.132Z,1344
2017-11-25T07:11:44.956Z,1352
2017-11-25T07:12:46.841Z,1328
2017-11-25T07:13:48.730Z,1172
2017-11-25T07:14:50.617Z,1376
2017-11-25T07:16:04.822Z,1436
2017-11-25T07:17:06.707Z,1452
2017-11-25T07:18:08.595Z,1684
2017-11-25T07:19:10.482Z,1704
2017-11-25T07:20:12.304Z,1484
2017-11-25T07:21:14.123Z,1380
2017-11-25T07:22:16.015Z,1284
2017-11-25T07:23:17.901Z,1168
2017-11-25T07:24:19.787Z,1032
2017-11-25T07:25:33.939Z,868
2017-11-25T07:26:35.820Z,892
2017-11-25T07:27:37.708Z,776
2017-11-25T07:28:39.592Z,756
2017-11-25T07:29:41.417Z,904
2017-11-25T07:30:43.851Z,932
2017-11-25T07:31:45.737Z,936
2017-11-25T07:32:47.627Z,1028
2017-11-25T07:33:49.512Z,1308
2017-11-25T07:35:03.663Z,1564
2017-11-25T07:36:05.547Z,1548
2017-11-25T07:37:07.434Z,2188
2017-11-25T07:38:09.323Z,1480
2017-11-25T07:39:11.347Z,1344
2017-11-25T07:40:13.172Z,1560
2017-11-25T07:41:15.058Z,1364
2017-11-25T07:42:16.945Z,1612
2017-11-25T07:43:18.830Z,1696
2017-11-25T07:44:33.021Z,1508
2017-11-25T07:45:34.910Z,1496
2017-11-25T07:46:36.795Z,1496
2017-11-25T07:47:38.683Z,1592
2017-11-25T07:48:40.520Z,1480
2017-11-25T07:49:42.342Z,1604
2017-11-25T07:50:44.272Z,1672
2017-11-25T07:51:46.217Z,1628
2017-11-25T07:52:48.101Z,1680
2017-11-25T07:54:02.267Z,1716
2017-11-25T07:55:04.152Z,1988
2017-11-25T07:56:06.104Z,1632
2017-11-25T07:57:07.960Z,2088
2017-11-25T07:58:09.785Z,1768
2017-11-25T07:59:11.606Z,1884
2017-11-25T08:00:13.493Z,1964
2017-11-25T08:01:15.406Z,2040
2017-11-25T08:02:17.267Z,2032
2017-11-25T08:03:31.425Z,2196
2017-11-25T08:04:33.309Z,2004
2017-11-25T08:05:35.197Z,1940
2017-11-25T08:06:37.085Z,2148
2017-11-25T08:07:38.911Z,2016
2017-11-25T08:08:40.738Z,1848
2017-11-25T08:09:42.662Z,2024
2017-11-25T08:10:44.547Z,2024
2017-11-25T08:11:46.437Z,1956
2017-11-25T08:13:00.643Z,2244
2017-11-25T08:14:02.531Z,2576
2017-11-25T08:15:04.419Z,2980
2017-11-25T08:16:06.307Z,2792
2017-11-25T08:17:08.134Z,2684
2017-11-25T08:18:09.959Z,2712
2017-11-25T08:19:11.851Z,3296
2017-11-25T08:20:13.743Z,3420
2017-11-25T08:21:15.631Z,3568
2017-11-25T08:22:29.791Z,3568
2017-11-25T08:23:31.677Z,4336
2017-11-25T08:24:33.563Z,4236
2017-11-25T08:25:35.455Z,5276
2017-11-25T08:26:37.280Z,4996
2017-11-25T08:27:39.105Z,5364
2017-11-25T08:28:40.995Z,4896
2017-11-25T08:29:42.885Z,5008
2017-11-25T08:30:44.771Z,5616
2017-11-25T08:31:58.930Z,6096
2017-11-25T08:33:00.820Z,4704
2017-11-25T08:34:02.710Z,4536
2017-11-25T08:35:04.803Z,3796
2017-11-25T08:36:06.632Z,4104
2017-11-25T08:37:08.453Z,4840
2017-11-25T08:38:10.345Z,4732
2017-11-25T08:39:12.235Z,3480
2017-11-25T08:40:14.120Z,3680
2017-11-25T08:41:28.279Z,3648
2017-11-25T08:42:30.166Z,3884
2017-11-25T08:43:32.060Z,3280
2017-11-25T08:44:33.951Z,3608
2017-11-25T08:45:35.776Z,3820
2017-11-25T08:46:37.604Z,3812
2017-11-25T08:47:39.491Z,3928
2017-11-25T08:48:41.384Z,4020
2017-11-25T08:49:43.269Z,3312
2017-11-25T08:50:57.428Z,3260
2017-11-25T08:51:59.317Z,3332
2017-11-25T08:53:01.206Z,3344
2017-11-25T08:54:03.096Z,2716
2017-11-25T08:55:04.933Z,2832
2017-11-25T08:56:06.744Z,2708
2017-11-25T08:57:08.638Z,2664
2017-11-25T08:58:10.529Z,2880
2017-11-25T08:59:12.419Z,2512
2017-11-25T09:00:26.577Z,2828
2017-11-25T09:01:28.465Z,2800
2017-11-25T09:02:30.356Z,2516
2017-11-25T09:03:32.244Z,2256
2017-11-25T09:04:34.070Z,2232
2017-11-25T09:05:35.893Z,2148
2017-11-25T09:06:37.782Z,2196
2017-11-25T09:07:39.691Z,2052
2017-11-25T09:08:41.558Z,2144
2017-11-25T09:09:55.716Z,2040
2017-11-25T09:10:57.613Z,2032
2017-11-25T09:11:59.501Z,1928
2017-11-25T09:13:01.387Z,2072
2017-11-25T09:14:03.208Z,2072
2017-11-25T09:15:05.036Z,2232
2017-11-25T09:16:06.929Z,2160
2017-11-25T09:17:08.811Z,2148
2017-11-25T09:18:10.694Z,2064
2017-11-25T09:19:24.851Z,2384
2017-11-25T09:20:26.734Z,2260
2017-11-25T09:21:28.622Z,2268
2017-11-25T09:22:30.504Z,2388
2017-11-25T09:23:32.336Z,2456
2017-11-25T09:24:34.152Z,2616
2017-11-25T09:25:36.049Z,2496
2017-11-25T09:26:37.942Z,2448
2017-11-25T09:27:39.948Z,2492
2017-11-25T09:28:54.171Z,2632
2017-11-25T09:29:56.055Z,2588
2017-11-25T09:30:58.289Z,2868
2017-11-25T09:32:00.142Z,3328
2017-11-25T09:33:01.996Z,3412
2017-11-25T09:34:03.819Z,3516
2017-11-25T09:35:05.710Z,3064
2017-11-25T09:36:07.599Z,2740
2017-11-25T09:37:09.491Z,2952
2017-11-25T09:38:23.722Z,3092
2017-11-25T09:39:25.999Z,3536
2017-11-25T09:40:28.036Z,4068
2017-11-25T09:41:30.019Z,3880
2017-11-25T09:42:32.377Z,4060
2017-11-25T09:43:34.173Z,4124
2017-11-25T09:44:36.057Z,4048
2017-11-25T09:45:37.956Z,3840
2017-11-25T09:46:39.842Z,3200
2017-11-25T09:47:54.005Z,3240
2017-11-25T09:48:55.904Z,3084
2017-11-25T09:49:57.793Z,3072
2017-11-25T09:50:59.687Z,2996
2017-11-25T09:52:01.519Z,2936
2017-11-25T09:53:03.360Z,3108
2017-11-25T09:54:05.279Z,3220
2017-11-25T09:55:07.228Z,3120
2017-11-25T09:56:09.196Z,3148
2017-11-25T09:57:23.352Z,3024
2017-11-25T09:58:25.242Z,3024
2017-11-25T09:59:27.128Z,3140
2017-11-25T10:00:29.024Z,3016
2017-11-25T10:01:30.845Z,3260
2017-11-25T10:02:32.663Z,3440
2017-11-25T10:03:34.548Z,3712
2017-11-25T10:04:36.437Z,3768
2017-11-25T10:05:38.328Z,4140
2017-11-25T10:06:52.484Z,3760
2017-11-25T10:07:54.382Z,3704
2017-11-25T10:08:56.474Z,3696
2017-11-25T10:09:58.364Z,3736
2017-11-25T10:11:00.189Z,3280
2017-11-25T10:12:02.066Z,3276
2017-11-25T10:13:03.889Z,3156
2017-11-25T10:14:05.714Z,3112
2017-11-25T10:15:07.547Z,3128
2017-11-25T10:16:21.704Z,3140
2017-11-25T10:17:23.588Z,3216
2017-11-25T10:18:25.780Z,3140
2017-11-25T10:19:27.632Z,3292
2017-11-25T10:20:29.475Z,3448
2017-11-25T10:21:31.281Z,3836
2017-11-25T10:22:33.171Z,3640
2017-11-25T10:23:35.064Z,3916
2017-11-25T10:24:36.949Z,3944
2017-11-25T10:25:51.109Z,3812
2017-11-25T10:26:53.000Z,4356
2017-11-25T10:27:54.983Z,4748
2017-11-25T10:28:56.963Z,4904
2017-11-25T10:29:58.805Z,4704
2017-11-25T10:31:00.823Z,4580
2017-11-25T10:32:02.960Z,4328
2017-11-25T10:33:04.943Z,4028
2017-11-25T10:34:06.901Z,4124
2017-11-25T10:35:21.059Z,4296
2017-11-25T10:36:22.950Z,4916
2017-11-25T10:37:24.834Z,5712
2017-11-25T10:38:26.727Z,5740
2017-11-25T10:39:28.562Z,6956
2017-11-25T10:40:30.389Z,7812
2017-11-25T10:41:32.279Z,8264
2017-11-25T10:42:34.169Z,6880
2017-11-25T10:43:36.058Z,7016
2017-11-25T10:44:50.269Z,5040
2017-11-25T10:45:52.261Z,4616
2017-11-25T10:46:54.154Z,4268
2017-11-25T10:47:56.044Z,3600
2017-11-25T10:48:57.966Z,3400
2017-11-25T10:49:59.756Z,3776
2017-11-25T10:51:01.648Z,3808
2017-11-25T10:52:03.546Z,3424
2017-11-25T10:53:05.472Z,3552
2017-11-25T10:54:19.637Z,3196
2017-11-25T10:55:21.530Z,3292
2017-11-25T10:56:23.423Z,3260
2017-11-25T10:57:25.317Z,3004
2017-11-25T10:58:27.136Z,2636
2017-11-25T10:59:28.970Z,2408
2017-11-25T11:00:30.856Z,2216
2017-11-25T11:01:32.746Z,2064
2017-11-25T11:02:34.657Z,1680
2017-11-25T11:03:48.865Z,1580
2017-11-25T11:04:50.785Z,1668
2017-11-25T11:05:52.752Z,1728
2017-11-25T11:06:54.638Z,1836
2017-11-25T11:07:56.470Z,1768
2017-11-25T11:08:58.301Z,1836
2017-11-25T11:10:00.192Z,1688
2017-11-25T11:11:02.080Z,1652
2017-11-25T11:12:03.967Z,1708
2017-11-25T11:13:18.117Z,1860
2017-11-25T11:14:20.007Z,1804
2017-11-25T11:15:21.941Z,1800
2017-11-25T11:16:23.857Z,1984
2017-11-25T11:17:25.681Z,1792
2017-11-25T11:18:27.501Z,1680
2017-11-25T11:19:29.389Z,1660
2017-11-25T11:20:31.271Z,1548
2017-11-25T11:21:33.158Z,1380
2017-11-25T11:22:47.316Z,1324
2017-11-25T11:23:49.201Z,1360
2017-11-25T11:24:51.088Z,1408
2017-11-25T11:25:52.969Z,1280
2017-11-25T11:26:54.791Z,1200
2017-11-25T11:27:56.616Z,1060
2017-11-25T11:28:58.504Z,864
2017-11-25T11:30:00.418Z,828
2017-11-25T11:31:02.327Z,716
2017-11-25T11:32:16.524Z,620
2017-11-25T11:33:18.427Z,660
2017-11-25T11:34:20.313Z,760
2017-11-25T11:35:22.201Z,804
2017-11-25T11:36:24.032Z,628
2017-11-25T11:37:25.934Z,532
2017-11-25T11:38:27.868Z,548
2017-11-25T11:39:29.753Z,452
2017-11-25T11:40:31.642Z,440
2017-11-25T11:41:45.788Z,456
2017-11-25T11:42:47.672Z,480
2017-11-25T11:43:49.557Z,588
2017-11-25T11:44:51.513Z,556
2017-11-25T11:45:53.325Z,492
2017-11-25T11:46:55.147Z,492
2017-11-25T11:47:57.042Z,492
2017-11-25T11:48:58.925Z,548
2017-11-25T11:50:00.808Z,564
2017-11-25T11:51:14.966Z,632
2017-11-25T11:52:16.864Z,620
2017-11-25T11:53:18.759Z,656
2017-11-25T11:54:20.716Z,656
2017-11-25T11:55:22.570Z,748
2017-11-25T11:56:24.388Z,652
2017-11-25T11:57:26.275Z,772
2017-11-25T11:58:28.159Z,928
2017-11-25T11:59:30.046Z,1116
2017-11-25T12:00:44.203Z,1212
2017-11-25T12:01:46.088Z,1168
2017-11-25T12:02:48.031Z,1376
2017-11-25T12:03:49.938Z,1268
2017-11-25T12:04:51.761Z,1312
2017-11-25T12:05:53.604Z,1180
2017-11-25T12:06:55.502Z,1012
2017-11-25T12:07:57.393Z,936
2017-11-25T12:08:59.273Z,908
2017-11-25T12:10:13.434Z,972
2017-11-25T12:11:15.318Z,948
2017-11-25T12:12:17.216Z,1060
2017-11-25T12:13:19.129Z,1056
2017-11-25T12:14:21.020Z,1028
2017-11-25T12:15:22.835Z,948
2017-11-25T12:16:24.722Z,832
2017-11-25T12:17:26.610Z,728
2017-11-25T12:18:28.497Z,656
2017-11-25T12:19:42.651Z,648
2017-11-25T12:20:44.565Z,652
2017-11-25T12:21:46.479Z,604
2017-11-25T12:22:48.364Z,652
2017-11-25T12:23:50.187Z,712
2017-11-25T12:24:52.005Z,756
2017-11-25T12:25:53.893Z,764
2017-11-25T12:26:55.791Z,732
2017-11-25T12:27:57.681Z,716
2017-11-25T12:29:11.836Z,760
2017-11-25T12:30:13.719Z,924
2017-11-25T12:31:15.616Z,1052
2017-11-25T12:32:17.505Z,972
2017-11-25T12:33:19.333Z,876
2017-11-25T12:34:21.213Z,932
2017-11-25T12:35:23.078Z,948
2017-11-25T12:36:24.963Z,996
2017-11-25T12:37:26.847Z,1024
2017-11-25T12:38:41.020Z,1156
2017-11-25T12:39:42.904Z,1372
2017-11-25T12:40:44.789Z,1340
2017-11-25T12:41:46.674Z,1496
2017-11-25T12:42:48.504Z,1444
2017-11-25T12:43:50.339Z,1404
2017-11-25T12:44:52.278Z,1344
2017-11-25T12:45:54.142Z,1264
2017-11-25T12:46:56.027Z,1184
2017-11-25T12:48:10.223Z,1188
2017-11-25T12:49:12.109Z,1244
2017-11-25T12:50:13.993Z,1144
2017-11-25T12:51:15.877Z,980
2017-11-25T12:52:17.705Z,888
2017-11-25T12:53:19.522Z,932
2017-11-25T12:54:21.410Z,1108
2017-11-25T12:55:23.295Z,1344
2017-11-25T12:56:25.184Z,1540
2017-11-25T12:57:39.340Z,1736
2017-11-25T12:58:41.227Z,1876
2017-11-25T12:59:43.111Z,1892
2017-11-25T13:00:44.997Z,1684
2017-11-25T13:01:46.821Z,1380
2017-11-25T13:02:48.644Z,1188
2017-11-25T13:03:50.531Z,1140
2017-11-25T13:04:52.421Z,1224
2017-11-25T13:05:54.657Z,1272
2017-11-25T13:07:08.864Z,1136
2017-11-25T13:08:10.766Z,980
2017-11-25T13:09:12.706Z,868
2017-11-25T13:10:14.589Z,840
2017-11-25T13:11:16.426Z,836
2017-11-25T13:12:18.262Z,792
2017-11-25T13:13:20.478Z,776
2017-11-25T13:14:22.703Z,800
2017-11-25T13:15:24.565Z,832
2017-11-25T13:16:39.074Z,812
2017-11-25T13:17:42.329Z,740
2017-11-25T13:18:44.382Z,660
2017-11-25T13:19:46.247Z,616
2017-11-25T13:20:48.069Z,608
2017-11-25T13:21:49.896Z,584
2017-11-25T13:22:51.775Z,576
2017-11-25T13:23:53.662Z,592
2017-11-25T13:24:55.543Z,652
2017-11-25T13:26:09.770Z,704
2017-11-25T13:27:11.686Z,740
2017-11-25T13:28:13.571Z,740
2017-11-25T13:29:15.455Z,760
2017-11-25T13:30:17.278Z,812
2017-11-25T13:31:19.115Z,916
2017-11-25T13:32:21.002Z,1188
2017-11-25T13:33:22.891Z,1452
2017-11-25T13:34:24.773Z,1404
2017-11-25T13:35:38.931Z,1128
2017-11-25T13:36:40.816Z,1004
2017-11-25T13:37:43.039Z,1052
2017-11-25T13:38:45.031Z,1148
2017-11-25T13:39:46.887Z,1188
2017-11-25T13:40:48.749Z,1084
2017-11-25T13:41:50.637Z,964
2017-11-25T13:42:52.522Z,1020
2017-11-25T13:43:54.409Z,1376
2017-11-25T13:45:08.640Z,1728
2017-11-25T13:46:10.524Z,1692
2017-11-25T13:47:12.421Z,1524
2017-11-25T13:48:14.306Z,1228
2017-11-25T13:49:16.131Z,956
2017-11-25T13:50:17.951Z,852
2017-11-25T13:51:19.842Z,844
2017-11-25T13:52:21.750Z,880
2017-11-25T13:53:23.630Z,856
2017-11-25T13:54:37.834Z,776
2017-11-25T13:55:39.727Z,684
2017-11-25T13:56:41.610Z,588
2017-11-25T13:57:43.496Z,524
2017-11-25T13:58:45.318Z,536
2017-11-25T13:59:47.138Z,596
2017-11-25T14:00:49.031Z,656
2017-11-25T14:01:50.916Z,612
2017-11-25T14:02:52.804Z,532
2017-11-25T14:04:06.959Z,440
2017-11-25T14:05:08.846Z,404
2017-11-25T14:06:10.729Z,480
2017-11-25T14:07:12.661Z,548
2017-11-25T14:08:14.489Z,568
2017-11-25T14:09:16.310Z,532
2017-11-25T14:10:18.627Z,460
2017-11-25T14:11:20.592Z,364
2017-11-25T14:12:22.445Z,344
2017-11-25T14:13:36.607Z,332
2017-11-25T14:14:38.485Z,288
2017-11-25T14:15:40.376Z,272
2017-11-25T14:16:42.268Z,308
2017-11-25T14:17:44.085Z,356
2017-11-25T14:18:45.929Z,404
2017-11-25T14:19:47.796Z,404
2017-11-25T14:20:49.707Z,412
2017-11-25T14:21:51.569Z,432
2017-11-25T14:23:05.775Z,424
2017-11-25T14:24:07.654Z,356
2017-11-25T14:25:09.543Z,320
2017-11-25T14:26:11.421Z,336
2017-11-25T14:27:13.250Z,340
2017-11-25T14:28:15.068Z,288
2017-11-25T14:29:16.952Z,256
2017-11-25T14:30:18.837Z,252
2017-11-25T14:31:20.720Z,244
2017-11-25T14:32:34.874Z,240
2017-11-25T14:33:36.792Z,256
2017-11-25T14:34:38.686Z,272
2017-11-25T14:35:40.614Z,264
2017-11-25T14:36:42.435Z,252
2017-11-25T14:37:44.255Z,236
2017-11-25T14:38:46.149Z,228
2017-11-25T14:39:48.027Z,212
2017-11-25T14:40:49.911Z,196
2017-11-25T14:42:04.065Z,188
2017-11-25T14:43:05.955Z,188
2017-11-25T14:44:07.895Z,176
2017-11-25T14:45:09.775Z,168
2017-11-25T14:46:11.602Z,160